sensor_id;sensor_type;location;lat;lon;timestamp;pressure;altitude;pressure_sealevel;temperature;humidity
55932;BME280;41837;55.700;37.984;2023-08-08T00:00:47;99354.03;;;19.34;100.00
55932;BME280;41837;55.700;37.984;2023-08-08T00:03:14;99353.09;;;19.35;100.00
55932;BME280;41837;55.700;37.984;2023-08-08T00:05:40;99353.59;;;19.29;100.00
55932;BME280;41837;55.700;37.984;2023-08-08T00:08:07;99338.78;;;19.26;100.00
55932;BME280;41837;55.700;37.984;2023-08-08T00:10:33;99346.16;;;19.23;100.00
55932;BME280;41837;55.700;37.984;2023-08-08T00:12:59;99335.44;;;19.24;100.00
55932;BME280;41837;55.700;37.984;2023-08-08T00:15:25;99337.25;;;19.24;100.00
55932;BME280;41837;55.700;37.984;2023-08-08T00:17:51;99340.16;;;19.20;100.00
55932;BME280;41837;55.700;37.984;2023-08-08T00:20:17;99343.06;;;19.17;100.00
55932;BME280;41837;55.700;37.984;2023-08-08T00:22:43;99335.38;;;19.14;100.00
55932;BME280;41837;55.700;37.984;2023-08-08T00:25:09;99337.19;;;19.14;100.00
55932;BME280;41837;55.700;37.984;2023-08-08T00:27:36;99329.50;;;19.11;100.00
55932;BME280;41837;55.700;37.984;2023-08-08T00:30:11;99332.03;;;19.12;100.00
55932;BME280;41837;55.700;37.984;2023-08-08T00:32:38;99324.94;;;19.13;100.00
55932;BME280;41837;55.700;37.984;2023-08-08T00:35:04;99325.78;;;19.13;100.00
55932;BME280;41837;55.700;37.984;2023-08-08T00:37:30;99310.84;;;19.12;100.00
55932;BME280;41837;55.700;37.984;2023-08-08T00:39:59;99311.41;;;19.16;100.00
55932;BME280;41837;55.700;37.984;2023-08-08T00:42:25;99299.28;;;19.13;100.00
55932;BME280;41837;55.700;37.984;2023-08-08T00:44:52;99304.19;;;19.18;100.00
55932;BME280;41837;55.700;37.984;2023-08-08T00:47:18;99311.69;;;19.13;100.00
55932;BME280;41837;55.700;37.984;2023-08-08T00:49:45;99312.38;;;19.15;100.00
55932;BME280;41837;55.700;37.984;2023-08-08T00:52:14;99313.22;;;19.15;100.00
55932;BME280;41837;55.700;37.984;2023-08-08T00:54:40;99305.28;;;19.15;100.00
55932;BME280;41837;55.700;37.984;2023-08-08T00:57:06;99318.41;;;19.17;100.00
55932;BME280;41837;55.700;37.984;2023-08-08T00:59:33;99315.16;;;19.13;100.00
55932;BME280;41837;55.700;37.984;2023-08-08T01:01:59;99306.09;;;19.16;100.00
55932;BME280;41837;55.700;37.984;2023-08-08T01:04:26;99292.84;;;19.16;100.00
55932;BME280;41837;55.700;37.984;2023-08-08T01:07:06;99290.06;;;19.17;100.00
55932;BME280;41837;55.700;37.984;2023-08-08T01:10:03;99280.59;;;19.15;100.00
55932;BME280;41837;55.700;37.984;2023-08-08T01:12:49;99273.47;;;19.15;100.00
55932;BME280;41837;55.700;37.984;2023-08-08T01:15:17;99257.44;;;19.17;100.00
55932;BME280;41837;55.700;37.984;2023-08-08T01:17:46;99257.44;;;19.17;100.00
55932;BME280;41837;55.700;37.984;2023-08-08T01:20:13;99249.25;;;19.20;100.00
55932;BME280;41837;55.700;37.984;2023-08-08T01:22:50;99248.41;;;19.19;100.00
55932;BME280;41837;55.700;37.984;2023-08-08T01:25:23;99245.91;;;19.28;100.00
55932;BME280;41837;55.700;37.984;2023-08-08T01:27:49;99253.84;;;19.28;100.00
55932;BME280;41837;55.700;37.984;2023-08-08T01:30:15;99256.50;;;19.28;100.00
55932;BME280;41837;55.700;37.984;2023-08-08T01:32:41;99249.28;;;19.30;100.00
55932;BME280;41837;55.700;37.984;2023-08-08T01:35:08;99249.72;;;19.35;100.00
55932;BME280;41837;55.700;37.984;2023-08-08T01:37:48;99252.25;;;19.36;100.00
55932;BME280;41837;55.700;37.984;2023-08-08T01:40:16;99248.19;;;19.42;100.00
55932;BME280;41837;55.700;37.984;2023-08-08T01:42:47;99248.34;;;19.41;100.00
55932;BME280;41837;55.700;37.984;2023-08-08T01:45:17;99246.69;;;19.49;100.00
55932;BME280;41837;55.700;37.984;2023-08-08T01:47:53;99234.56;;;19.47;100.00
55932;BME280;41837;55.700;37.984;2023-08-08T01:50:20;99243.63;;;19.54;100.00
55932;BME280;41837;55.700;37.984;2023-08-08T01:52:47;99232.03;;;19.55;100.00
55932;BME280;41837;55.700;37.984;2023-08-08T01:55:13;99243.22;;;19.59;100.00
55932;BME280;41837;55.700;37.984;2023-08-08T01:57:40;99232.63;;;19.59;100.00
55932;BME280;41837;55.700;37.984;2023-08-08T02:00:07;99237.47;;;19.53;100.00
55932;BME280;41837;55.700;37.984;2023-08-08T02:02:42;99250.88;;;19.52;100.00
55932;BME280;41837;55.700;37.984;2023-08-08T02:05:08;99247.09;;;19.54;100.00
55932;BME280;41837;55.700;37.984;2023-08-08T02:07:35;99236.22;;;19.48;100.00
55932;BME280;41837;55.700;37.984;2023-08-08T02:10:01;99244.03;;;19.49;100.00
55932;BME280;41837;55.700;37.984;2023-08-08T02:12:29;99234.69;;;19.45;100.00
55932;BME280;41837;55.700;37.984;2023-08-08T02:14:57;99235.13;;;19.50;100.00
55932;BME280;41837;55.700;37.984;2023-08-08T02:17:25;99237.75;;;19.60;100.00
55932;BME280;41837;55.700;37.984;2023-08-08T02:19:52;99227.38;;;19.78;100.00
55932;BME280;41837;55.700;37.984;2023-08-08T02:22:19;99230.66;;;19.61;100.00
55932;BME280;41837;55.700;37.984;2023-08-08T02:24:45;99239.25;;;19.43;100.00
55932;BME280;41837;55.700;37.984;2023-08-08T02:27:12;99240.69;;;19.47;100.00
55932;BME280;41837;55.700;37.984;2023-08-08T02:29:38;99241.47;;;19.38;100.00
55932;BME280;41837;55.700;37.984;2023-08-08T02:32:05;99229.09;;;19.48;100.00
55932;BME280;41837;55.700;37.984;2023-08-08T02:34:30;99225.88;;;19.45;100.00
55932;BME280;41837;55.700;37.984;2023-08-08T02:36:56;99223.25;;;19.54;100.00
55932;BME280;41837;55.700;37.984;2023-08-08T02:39:23;99229.25;;;19.56;100.00
55932;BME280;41837;55.700;37.984;2023-08-08T02:41:49;99231.22;;;19.64;100.00
55932;BME280;41837;55.700;37.984;2023-08-08T02:44:16;99226.28;;;19.81;100.00
55932;BME280;41837;55.700;37.984;2023-08-08T02:46:42;99238.34;;;19.73;100.00
55932;BME280;41837;55.700;37.984;2023-08-08T02:49:08;99234.47;;;19.87;100.00
55932;BME280;41837;55.700;37.984;2023-08-08T02:51:35;99229.75;;;19.81;100.00
55932;BME280;41837;55.700;37.984;2023-08-08T02:54:01;99230.31;;;19.85;100.00
55932;BME280;41837;55.700;37.984;2023-08-08T02:56:29;99237.09;;;19.68;100.00
55932;BME280;41837;55.700;37.984;2023-08-08T02:58:55;99241.13;;;19.62;100.00
55932;BME280;41837;55.700;37.984;2023-08-08T03:01:22;99239.38;;;20.21;100.00
55932;BME280;41837;55.700;37.984;2023-08-08T03:03:49;99230.72;;;20.48;100.00
55932;BME280;41837;55.700;37.984;2023-08-08T03:06:18;99236.44;;;20.24;100.00
55932;BME280;41837;55.700;37.984;2023-08-08T03:08:44;99228.78;;;20.02;100.00
55932;BME280;41837;55.700;37.984;2023-08-08T03:11:10;99239.38;;;19.92;100.00
55932;BME280;41837;55.700;37.984;2023-08-08T03:13:36;99235.06;;;19.81;100.00
55932;BME280;41837;55.700;37.984;2023-08-08T03:16:03;99234.03;;;19.72;100.00
55932;BME280;41837;55.700;37.984;2023-08-08T03:18:30;99236.53;;;19.64;100.00
55932;BME280;41837;55.700;37.984;2023-08-08T03:20:57;99246.31;;;19.64;100.00
55932;BME280;41837;55.700;37.984;2023-08-08T03:23:23;99237.97;;;19.78;100.00
55932;BME280;41837;55.700;37.984;2023-08-08T03:25:50;99228.75;;;20.31;100.00
55932;BME280;41837;55.700;37.984;2023-08-08T03:28:17;99226.53;;;21.03;100.00
55932;BME280;41837;55.700;37.984;2023-08-08T03:30:43;99229.13;;;21.13;100.00
55932;BME280;41837;55.700;37.984;2023-08-08T03:33:11;99222.47;;;21.64;100.00
55932;BME280;41837;55.700;37.984;2023-08-08T03:35:38;99208.28;;;21.91;100.00
55932;BME280;41837;55.700;37.984;2023-08-08T03:38:04;99219.34;;;21.69;100.00
55932;BME280;41837;55.700;37.984;2023-08-08T03:40:31;99222.75;;;21.05;100.00
55932;BME280;41837;55.700;37.984;2023-08-08T03:42:57;99229.16;;;20.56;100.00
55932;BME280;41837;55.700;37.984;2023-08-08T03:45:23;99236.88;;;20.29;100.00
55932;BME280;41837;55.700;37.984;2023-08-08T03:47:51;99239.13;;;20.05;100.00
55932;BME280;41837;55.700;37.984;2023-08-08T03:50:17;99246.94;;;19.97;100.00
55932;BME280;41837;55.700;37.984;2023-08-08T03:52:44;99250.41;;;19.87;100.00
55932;BME280;41837;55.700;37.984;2023-08-08T03:55:11;99253.91;;;19.88;100.00
55932;BME280;41837;55.700;37.984;2023-08-08T03:57:38;99263.00;;;19.95;100.00
55932;BME280;41837;55.700;37.984;2023-08-08T04:00:05;99261.31;;;19.84;100.00
55932;BME280;41837;55.700;37.984;2023-08-08T04:02:39;99259.97;;;19.59;100.00
55932;BME280;41837;55.700;37.984;2023-08-08T04:05:07;99268.22;;;19.66;100.00
55932;BME280;41837;55.700;37.984;2023-08-08T04:07:33;99267.41;;;19.75;100.00
55932;BME280;41837;55.700;37.984;2023-08-08T04:09:59;99270.59;;;19.69;100.00
55932;BME280;41837;55.700;37.984;2023-08-08T04:12:31;99281.31;;;19.57;100.00
55932;BME280;41837;55.700;37.984;2023-08-08T04:15:00;99269.75;;;19.68;100.00
55932;BME280;41837;55.700;37.984;2023-08-08T04:17:26;99272.13;;;19.71;100.00
55932;BME280;41837;55.700;37.984;2023-08-08T04:19:52;99273.59;;;19.75;100.00
55932;BME280;41837;55.700;37.984;2023-08-08T04:22:19;99276.59;;;19.71;100.00
55932;BME280;41837;55.700;37.984;2023-08-08T04:24:45;99282.84;;;19.60;100.00
55932;BME280;41837;55.700;37.984;2023-08-08T04:27:11;99281.22;;;19.69;100.00
55932;BME280;41837;55.700;37.984;2023-08-08T04:29:37;99284.03;;;19.77;100.00
55932;BME280;41837;55.700;37.984;2023-08-08T04:32:04;99276.78;;;19.79;100.00
55932;BME280;41837;55.700;37.984;2023-08-08T04:34:30;99275.47;;;19.73;100.00
55932;BME280;41837;55.700;37.984;2023-08-08T04:36:56;99273.84;;;19.82;100.00
55932;BME280;41837;55.700;37.984;2023-08-08T04:39:23;99275.00;;;19.99;100.00
55932;BME280;41837;55.700;37.984;2023-08-08T04:41:49;99281.56;;;19.95;100.00
55932;BME280;41837;55.700;37.984;2023-08-08T04:44:15;99258.69;;;20.23;100.00
55932;BME280;41837;55.700;37.984;2023-08-08T04:46:41;99276.28;;;20.15;100.00
55932;BME280;41837;55.700;37.984;2023-08-08T04:49:07;99277.53;;;20.20;100.00
55932;BME280;41837;55.700;37.984;2023-08-08T04:51:34;99288.13;;;20.10;100.00
55932;BME280;41837;55.700;37.984;2023-08-08T04:54:00;99293.72;;;20.07;100.00
55932;BME280;41837;55.700;37.984;2023-08-08T04:56:26;99295.94;;;19.83;100.00
55932;BME280;41837;55.700;37.984;2023-08-08T04:58:54;99292.84;;;19.78;100.00
55932;BME280;41837;55.700;37.984;2023-08-08T05:01:20;99300.19;;;19.74;100.00
55932;BME280;41837;55.700;37.984;2023-08-08T05:03:47;99301.38;;;19.50;100.00
55932;BME280;41837;55.700;37.984;2023-08-08T05:06:14;99299.56;;;19.51;100.00
55932;BME280;41837;55.700;37.984;2023-08-08T05:08:43;99312.25;;;19.47;100.00
55932;BME280;41837;55.700;37.984;2023-08-08T05:11:09;99301.44;;;19.70;100.00
55932;BME280;41837;55.700;37.984;2023-08-08T05:13:36;99311.25;;;19.48;100.00
55932;BME280;41837;55.700;37.984;2023-08-08T05:16:03;99319.00;;;19.61;100.00
55932;BME280;41837;55.700;37.984;2023-08-08T05:18:29;99325.31;;;19.70;100.00
55932;BME280;41837;55.700;37.984;2023-08-08T05:20:56;99332.16;;;19.72;100.00
55932;BME280;41837;55.700;37.984;2023-08-08T05:23:22;99313.72;;;19.71;100.00
55932;BME280;41837;55.700;37.984;2023-08-08T05:25:48;99313.38;;;19.75;100.00
55932;BME280;41837;55.700;37.984;2023-08-08T05:28:15;99315.84;;;19.77;100.00
55932;BME280;41837;55.700;37.984;2023-08-08T05:30:42;99315.84;;;19.77;100.00
55932;BME280;41837;55.700;37.984;2023-08-08T05:33:08;99302.44;;;19.69;100.00
55932;BME280;41837;55.700;37.984;2023-08-08T05:35:35;99311.06;;;19.71;100.00
55932;BME280;41837;55.700;37.984;2023-08-08T05:38:03;99311.56;;;19.96;100.00
55932;BME280;41837;55.700;37.984;2023-08-08T05:40:29;99303.91;;;19.92;100.00
55932;BME280;41837;55.700;37.984;2023-08-08T05:42:56;99308.41;;;20.11;100.00
55932;BME280;41837;55.700;37.984;2023-08-08T05:45:22;99300.84;;;20.56;100.00
55932;BME280;41837;55.700;37.984;2023-08-08T05:47:48;99292.47;;;20.70;100.00
55932;BME280;41837;55.700;37.984;2023-08-08T05:50:14;99296.50;;;20.55;100.00
55932;BME280;41837;55.700;37.984;2023-08-08T05:52:40;99285.78;;;20.37;100.00
55932;BME280;41837;55.700;37.984;2023-08-08T05:55:07;99299.56;;;20.11;100.00
55932;BME280;41837;55.700;37.984;2023-08-08T05:57:33;99305.47;;;20.44;100.00
55932;BME280;41837;55.700;37.984;2023-08-08T06:00:00;99308.97;;;20.54;100.00
55932;BME280;41837;55.700;37.984;2023-08-08T06:02:32;99309.25;;;20.61;100.00
55932;BME280;41837;55.700;37.984;2023-08-08T06:04:58;99300.84;;;20.85;100.00
55932;BME280;41837;55.700;37.984;2023-08-08T06:07:25;99310.34;;;20.88;100.00
55932;BME280;41837;55.700;37.984;2023-08-08T06:09:52;99308.69;;;20.67;100.00
55932;BME280;41837;55.700;37.984;2023-08-08T06:12:18;99300.56;;;20.88;100.00
55932;BME280;41837;55.700;37.984;2023-08-08T06:14:44;99292.50;;;21.17;100.00
55932;BME280;41837;55.700;37.984;2023-08-08T06:17:11;99287.72;;;22.04;100.00
55932;BME280;41837;55.700;37.984;2023-08-08T06:19:38;99281.31;;;22.69;100.00
55932;BME280;41837;55.700;37.984;2023-08-08T06:22:05;99275.31;;;22.13;100.00
55932;BME280;41837;55.700;37.984;2023-08-08T06:24:31;99278.59;;;21.89;100.00
55932;BME280;41837;55.700;37.984;2023-08-08T06:26:57;99274.03;;;21.53;100.00
55932;BME280;41837;55.700;37.984;2023-08-08T06:29:24;99277.72;;;21.70;100.00
55932;BME280;41837;55.700;37.984;2023-08-08T06:31:50;99285.78;;;21.78;100.00
55932;BME280;41837;55.700;37.984;2023-08-08T06:34:16;99282.06;;;21.71;100.00
55932;BME280;41837;55.700;37.984;2023-08-08T06:36:42;99285.38;;;22.19;100.00
55932;BME280;41837;55.700;37.984;2023-08-08T06:39:08;99284.47;;;22.90;100.00
55932;BME280;41837;55.700;37.984;2023-08-08T06:41:37;99273.97;;;22.89;100.00
55932;BME280;41837;55.700;37.984;2023-08-08T06:44:06;99269.84;;;22.68;100.00
55932;BME280;41837;55.700;37.984;2023-08-08T06:46:33;99279.69;;;22.50;100.00
55932;BME280;41837;55.700;37.984;2023-08-08T06:49:00;99265.34;;;23.56;100.00
55932;BME280;41837;55.700;37.984;2023-08-08T06:51:27;99265.34;;;23.64;100.00
55932;BME280;41837;55.700;37.984;2023-08-08T06:53:53;99260.31;;;24.36;100.00
55932;BME280;41837;55.700;37.984;2023-08-08T06:56:20;99266.69;;;24.60;100.00
55932;BME280;41837;55.700;37.984;2023-08-08T06:58:46;99257.41;;;25.12;95.32
55932;BME280;41837;55.700;37.984;2023-08-08T07:01:13;99261.13;;;25.42;91.52
55932;BME280;41837;55.700;37.984;2023-08-08T07:03:40;99258.97;;;24.82;94.52
55932;BME280;41837;55.700;37.984;2023-08-08T07:06:06;99252.88;;;25.12;94.00
55932;BME280;41837;55.700;37.984;2023-08-08T07:08:32;99255.13;;;23.51;100.00
55932;BME280;41837;55.700;37.984;2023-08-08T07:10:59;99261.31;;;24.11;99.60
55932;BME280;41837;55.700;37.984;2023-08-08T07:13:25;99249.78;;;24.27;98.81
55932;BME280;41837;55.700;37.984;2023-08-08T07:15:52;99265.34;;;24.56;99.95
55932;BME280;41837;55.700;37.984;2023-08-08T07:18:19;99254.16;;;24.61;96.93
55932;BME280;41837;55.700;37.984;2023-08-08T07:20:45;99247.09;;;24.84;94.18
55932;BME280;41837;55.700;37.984;2023-08-08T07:23:12;99258.47;;;24.20;95.77
55932;BME280;41837;55.700;37.984;2023-08-08T07:25:38;99258.94;;;23.99;96.38
55932;BME280;41837;55.700;37.984;2023-08-08T07:28:05;99259.66;;;24.43;95.75
55932;BME280;41837;55.700;37.984;2023-08-08T07:30:32;99261.81;;;24.80;96.62
55932;BME280;41837;55.700;37.984;2023-08-08T07:32:58;99267.97;;;24.81;94.87
55932;BME280;41837;55.700;37.984;2023-08-08T07:35:27;99265.00;;;24.43;96.04
55932;BME280;41837;55.700;37.984;2023-08-08T07:37:54;99267.00;;;24.57;95.67
55932;BME280;41837;55.700;37.984;2023-08-08T07:40:20;99271.69;;;24.71;95.96
55932;BME280;41837;55.700;37.984;2023-08-08T07:42:48;99272.00;;;24.76;95.82
55932;BME280;41837;55.700;37.984;2023-08-08T07:45:16;99273.66;;;24.86;94.85
55932;BME280;41837;55.700;37.984;2023-08-08T07:47:42;99275.34;;;24.29;96.89
55932;BME280;41837;55.700;37.984;2023-08-08T07:50:09;99274.59;;;25.18;94.02
55932;BME280;41837;55.700;37.984;2023-08-08T07:52:39;99258.97;;;25.77;91.87
55932;BME280;41837;55.700;37.984;2023-08-08T07:55:07;99251.59;;;26.72;87.97
55932;BME280;41837;55.700;37.984;2023-08-08T07:57:33;99252.81;;;26.61;86.13
55932;BME280;41837;55.700;37.984;2023-08-08T08:00:02;99252.53;;;27.39;80.75
55932;BME280;41837;55.700;37.984;2023-08-08T08:02:42;99251.34;;;26.58;83.46
55932;BME280;41837;55.700;37.984;2023-08-08T08:05:11;99257.88;;;26.41;86.57
55932;BME280;41837;55.700;37.984;2023-08-08T08:07:39;99249.16;;;25.93;88.33
55932;BME280;41837;55.700;37.984;2023-08-08T08:10:09;99255.50;;;25.68;88.92
55932;BME280;41837;55.700;37.984;2023-08-08T08:12:36;99250.88;;;25.85;89.04
55932;BME280;41837;55.700;37.984;2023-08-08T08:15:03;99260.56;;;26.41;86.42
55932;BME280;41837;55.700;37.984;2023-08-08T08:17:32;99263.34;;;25.70;89.23
55932;BME280;41837;55.700;37.984;2023-08-08T08:19:59;99267.47;;;26.35;87.19
55932;BME280;41837;55.700;37.984;2023-08-08T08:22:26;99273.28;;;26.39;88.31
55932;BME280;41837;55.700;37.984;2023-08-08T08:24:52;99265.28;;;25.84;88.96
55932;BME280;41837;55.700;37.984;2023-08-08T08:27:19;99259.13;;;26.30;89.34
55932;BME280;41837;55.700;37.984;2023-08-08T08:29:46;99256.03;;;26.41;88.19
55932;BME280;41837;55.700;37.984;2023-08-08T08:32:12;99264.53;;;26.22;87.25
55932;BME280;41837;55.700;37.984;2023-08-08T08:34:39;99283.41;;;25.74;91.93
55932;BME280;41837;55.700;37.984;2023-08-08T08:37:05;99275.34;;;26.14;89.52
55932;BME280;41837;55.700;37.984;2023-08-08T08:39:32;99272.94;;;25.96;90.99
55932;BME280;41837;55.700;37.984;2023-08-08T08:42:00;99281.34;;;25.84;91.78
55932;BME280;41837;55.700;37.984;2023-08-08T08:44:31;99277.34;;;25.80;90.58
55932;BME280;41837;55.700;37.984;2023-08-08T08:47:03;99287.25;;;25.80;94.59
55932;BME280;41837;55.700;37.984;2023-08-08T08:49:31;99289.63;;;25.27;95.00
55932;BME280;41837;55.700;37.984;2023-08-08T08:51:59;99283.03;;;24.90;95.61
55932;BME280;41837;55.700;37.984;2023-08-08T08:54:31;99289.38;;;24.48;97.97
55932;BME280;41837;55.700;37.984;2023-08-08T08:57:00;99292.75;;;24.66;100.00
55932;BME280;41837;55.700;37.984;2023-08-08T08:59:26;99300.06;;;24.48;100.00
55932;BME280;41837;55.700;37.984;2023-08-08T09:01:53;99309.91;;;24.39;100.00
55932;BME280;41837;55.700;37.984;2023-08-08T09:04:23;99310.38;;;24.26;100.00
55932;BME280;41837;55.700;37.984;2023-08-08T09:06:52;99297.34;;;24.15;100.00
55932;BME280;41837;55.700;37.984;2023-08-08T09:09:20;99328.69;;;23.88;100.00
55932;BME280;41837;55.700;37.984;2023-08-08T09:11:53;99322.00;;;23.92;100.00
55932;BME280;41837;55.700;37.984;2023-08-08T09:14:24;99319.25;;;24.35;100.00
55932;BME280;41837;55.700;37.984;2023-08-08T09:16:53;99314.44;;;24.63;100.00
55932;BME280;41837;55.700;37.984;2023-08-08T09:19:22;99324.66;;;24.60;100.00
55932;BME280;41837;55.700;37.984;2023-08-08T09:21:51;99323.78;;;24.75;100.00
55932;BME280;41837;55.700;37.984;2023-08-08T09:24:18;99341.97;;;24.47;100.00
55932;BME280;41837;55.700;37.984;2023-08-08T09:26:45;99353.66;;;24.38;100.00
55932;BME280;41837;55.700;37.984;2023-08-08T09:29:13;99344.78;;;24.29;100.00
55932;BME280;41837;55.700;37.984;2023-08-08T09:31:42;99334.44;;;24.34;100.00
55932;BME280;41837;55.700;37.984;2023-08-08T09:34:08;99340.44;;;24.36;100.00
55932;BME280;41837;55.700;37.984;2023-08-08T09:36:35;99333.50;;;24.68;100.00
55932;BME280;41837;55.700;37.984;2023-08-08T09:39:02;99328.66;;;24.72;100.00
55932;BME280;41837;55.700;37.984;2023-08-08T09:41:31;99328.28;;;24.50;100.00
55932;BME280;41837;55.700;37.984;2023-08-08T09:43:59;99331.47;;;24.70;100.00
55932;BME280;41837;55.700;37.984;2023-08-08T09:46:29;99329.13;;;24.84;100.00
55932;BME280;41837;55.700;37.984;2023-08-08T09:48:56;99331.47;;;24.70;100.00
55932;BME280;41837;55.700;37.984;2023-08-08T09:51:23;99337.16;;;24.67;100.00
55932;BME280;41837;55.700;37.984;2023-08-08T09:53:50;99337.16;;;24.67;100.00
55932;BME280;41837;55.700;37.984;2023-08-08T09:56:17;99349.53;;;24.76;100.00
55932;BME280;41837;55.700;37.984;2023-08-08T09:58:45;99344.19;;;24.76;100.00
55932;BME280;41837;55.700;37.984;2023-08-08T10:01:13;99342.97;;;24.38;100.00
55932;BME280;41837;55.700;37.984;2023-08-08T10:03:41;99367.81;;;24.30;100.00
55932;BME280;41837;55.700;37.984;2023-08-08T10:06:11;99362.81;;;24.35;100.00
55932;BME280;41837;55.700;37.984;2023-08-08T10:08:37;99364.81;;;24.17;100.00
55932;BME280;41837;55.700;37.984;2023-08-08T10:11:05;99365.53;;;23.93;100.00
55932;BME280;41837;55.700;37.984;2023-08-08T10:13:35;99372.50;;;24.28;100.00
55932;BME280;41837;55.700;37.984;2023-08-08T10:16:08;99373.31;;;24.20;100.00
55932;BME280;41837;55.700;37.984;2023-08-08T10:18:35;99365.47;;;24.35;100.00
55932;BME280;41837;55.700;37.984;2023-08-08T10:21:04;99377.88;;;24.45;100.00
55932;BME280;41837;55.700;37.984;2023-08-08T10:23:36;99378.00;;;24.27;100.00
55932;BME280;41837;55.700;37.984;2023-08-08T10:26:03;99371.97;;;24.16;100.00
55932;BME280;41837;55.700;37.984;2023-08-08T10:28:32;99370.97;;;24.17;100.00
55932;BME280;41837;55.700;37.984;2023-08-08T10:31:01;99359.59;;;24.07;100.00
55932;BME280;41837;55.700;37.984;2023-08-08T10:33:41;99361.78;;;24.12;100.00
55932;BME280;41837;55.700;37.984;2023-08-08T10:36:09;99363.16;;;24.32;100.00
55932;BME280;41837;55.700;37.984;2023-08-08T10:38:49;99367.31;;;24.27;100.00
55932;BME280;41837;55.700;37.984;2023-08-08T10:41:21;99365.78;;;24.16;100.00
55932;BME280;41837;55.700;37.984;2023-08-08T10:43:53;99374.00;;;23.80;100.00
55932;BME280;41837;55.700;37.984;2023-08-08T10:46:24;99379.19;;;23.55;100.00
55932;BME280;41837;55.700;37.984;2023-08-08T10:48:53;99384.06;;;23.60;100.00
55932;BME280;41837;55.700;37.984;2023-08-08T10:51:20;99377.28;;;23.74;100.00
55932;BME280;41837;55.700;37.984;2023-08-08T10:53:46;99383.13;;;23.77;100.00
55932;BME280;41837;55.700;37.984;2023-08-08T10:56:13;99381.97;;;23.45;100.00
55932;BME280;41837;55.700;37.984;2023-08-08T10:58:41;99379.75;;;23.33;100.00
55932;BME280;41837;55.700;37.984;2023-08-08T11:01:08;99371.59;;;23.69;100.00
55932;BME280;41837;55.700;37.984;2023-08-08T11:03:36;99374.88;;;23.89;100.00
55932;BME280;41837;55.700;37.984;2023-08-08T11:06:03;99378.94;;;24.01;100.00
55932;BME280;41837;55.700;37.984;2023-08-08T11:08:31;99373.66;;;24.17;100.00
55932;BME280;41837;55.700;37.984;2023-08-08T11:10:59;99373.66;;;24.26;100.00
55932;BME280;41837;55.700;37.984;2023-08-08T11:13:25;99369.94;;;24.18;100.00
55932;BME280;41837;55.700;37.984;2023-08-08T11:15:52;99380.34;;;24.30;100.00
55932;BME280;41837;55.700;37.984;2023-08-08T11:18:18;99390.69;;;24.25;100.00
55932;BME280;41837;55.700;37.984;2023-08-08T11:20:45;99386.59;;;23.96;100.00
55932;BME280;41837;55.700;37.984;2023-08-08T11:23:11;99385.09;;;24.01;100.00
55932;BME280;41837;55.700;37.984;2023-08-08T11:25:44;99391.41;;;23.92;100.00
55932;BME280;41837;55.700;37.984;2023-08-08T11:28:12;99401.44;;;23.90;100.00
55932;BME280;41837;55.700;37.984;2023-08-08T11:30:40;99394.25;;;23.91;100.00
55932;BME280;41837;55.700;37.984;2023-08-08T11:33:08;99407.44;;;23.92;100.00
55932;BME280;41837;55.700;37.984;2023-08-08T11:35:34;99399.66;;;23.81;100.00
55932;BME280;41837;55.700;37.984;2023-08-08T11:38:00;99404.59;;;23.94;100.00
55932;BME280;41837;55.700;37.984;2023-08-08T11:40:29;99404.81;;;24.00;100.00
55932;BME280;41837;55.700;37.984;2023-08-08T11:42:56;99402.63;;;23.70;100.00
55932;BME280;41837;55.700;37.984;2023-08-08T11:45:25;99402.19;;;23.48;100.00
55932;BME280;41837;55.700;37.984;2023-08-08T11:47:55;99397.38;;;23.86;100.00
55932;BME280;41837;55.700;37.984;2023-08-08T11:50:25;99392.41;;;23.83;100.00
55932;BME280;41837;55.700;37.984;2023-08-08T11:52:54;99390.41;;;23.85;100.00
55932;BME280;41837;55.700;37.984;2023-08-08T11:55:26;99392.16;;;24.11;100.00
55932;BME280;41837;55.700;37.984;2023-08-08T11:57:54;99397.53;;;24.19;100.00
55932;BME280;41837;55.700;37.984;2023-08-08T12:00:26;99399.88;;;24.22;100.00
55932;BME280;41837;55.700;37.984;2023-08-08T12:02:54;99403.06;;;23.91;100.00
55932;BME280;41837;55.700;37.984;2023-08-08T12:05:21;99391.00;;;24.21;100.00
55932;BME280;41837;55.700;37.984;2023-08-08T12:07:49;99390.66;;;24.16;100.00
55932;BME280;41837;55.700;37.984;2023-08-08T12:10:21;99393.84;;;24.20;100.00
55932;BME280;41837;55.700;37.984;2023-08-08T12:12:54;99389.88;;;24.40;100.00
55932;BME280;41837;55.700;37.984;2023-08-08T12:15:22;99389.38;;;24.37;100.00
55932;BME280;41837;55.700;37.984;2023-08-08T12:17:49;99392.38;;;24.26;100.00
55932;BME280;41837;55.700;37.984;2023-08-08T12:20:16;99396.66;;;24.18;100.00
55932;BME280;41837;55.700;37.984;2023-08-08T12:22:42;99391.50;;;24.25;100.00
55932;BME280;41837;55.700;37.984;2023-08-08T12:25:08;99391.06;;;24.38;100.00
55932;BME280;41837;55.700;37.984;2023-08-08T12:27:34;99392.91;;;24.54;100.00
55932;BME280;41837;55.700;37.984;2023-08-08T12:30:00;99394.19;;;24.33;100.00
55932;BME280;41837;55.700;37.984;2023-08-08T12:32:30;99396.34;;;24.21;100.00
55932;BME280;41837;55.700;37.984;2023-08-08T12:34:58;99413.97;;;23.98;100.00
55932;BME280;41837;55.700;37.984;2023-08-08T12:37:24;99396.50;;;24.12;100.00
55932;BME280;41837;55.700;37.984;2023-08-08T12:39:51;99386.69;;;24.37;100.00
55932;BME280;41837;55.700;37.984;2023-08-08T12:42:17;99379.09;;;24.58;100.00